<?xml version='1.0' encoding='UTF-8'?>
<gpx xmlns="http://www.topografix.com/GPX/1/1" creator="www.balnam.be" version="1.1" xmlns:xsi="http://www.w3.org/2001/XMLSchema-instance" xsi:schemaLocation="http://www.topografix.com/GPX/1/1 http://www.topografix.com/GPX/1/1/gpx.xsd">
<trk>
<name>nrcmg3</name>
<cmt>v</cmt>
<desc>Mont-Gauthier Chemin n°3 Rue Hautmont / Rue du Pécali / Chemin des Frênes</desc>
<link href="https://chemins.be/montgauthier/chemin/3"/><trkseg>
<trkpt lat="50.204760" lon="5.150841"><time>2026-05-03T07:31:45Z</time></trkpt>
<trkpt lat="50.203324" lon="5.151700"><time>2026-05-03T07:41:45Z</time></trkpt>
<trkpt lat="50.202591" lon="5.152431"><time>2026-05-03T07:51:45Z</time></trkpt>
<trkpt lat="50.201434" lon="5.152089"><time>2026-05-03T08:01:45Z</time></trkpt>
<trkpt lat="50.200967" lon="5.151928"><time>2026-05-03T08:11:45Z</time></trkpt>
<trkpt lat="50.200381" lon="5.152226"><time>2026-05-03T08:21:45Z</time></trkpt>
<trkpt lat="50.199690" lon="5.151991"><time>2026-05-03T08:31:45Z</time></trkpt>
<trkpt lat="50.195572" lon="5.153365"><time>2026-05-03T08:41:45Z</time></trkpt>
<trkpt lat="50.193542" lon="5.155713"><time>2026-05-03T08:51:45Z</time></trkpt>
<trkpt lat="50.191646" lon="5.155444"><time>2026-05-03T09:01:45Z</time></trkpt>
</trkseg></trk>
<trk>
<name>nrcmg3</name>
<cmt>r</cmt>
<desc>Mont-Gauthier Chemin n°3 Rue Hautmont / Rue du Pécali / Chemin des Frênes</desc>
<link href="https://chemins.be/montgauthier/chemin/3"/><trkseg>
<trkpt lat="50.191646" lon="5.155444"><time>2026-05-03T09:01:45Z</time></trkpt>
<trkpt lat="50.185908" lon="5.154397"><time>2026-05-03T09:11:45Z</time></trkpt>
<trkpt lat="50.184671" lon="5.155188"><time>2026-05-03T09:21:45Z</time></trkpt>
<trkpt lat="50.183252" lon="5.156341"><time>2026-05-03T09:31:45Z</time></trkpt>
<trkpt lat="50.182206" lon="5.156702"><time>2026-05-03T09:41:45Z</time></trkpt>
<trkpt lat="50.181366" lon="5.154658"><time>2026-05-03T09:51:45Z</time></trkpt>
<trkpt lat="50.179655" lon="5.155106"><time>2026-05-03T10:01:45Z</time></trkpt>
<trkpt lat="50.178312" lon="5.155489"><time>2026-05-03T10:11:45Z</time></trkpt>
<trkpt lat="50.177436" lon="5.154845"><time>2026-05-03T10:21:45Z</time></trkpt>
<trkpt lat="50.175948" lon="5.152748"><time>2026-05-03T10:31:45Z</time></trkpt>
<trkpt lat="50.173967" lon="5.153262"><time>2026-05-03T10:41:45Z</time></trkpt>
<trkpt lat="50.171990" lon="5.155805"><time>2026-05-03T10:51:45Z</time></trkpt>
<trkpt lat="50.170284" lon="5.156715"><time>2026-05-03T11:01:45Z</time></trkpt>
<trkpt lat="50.167608" lon="5.157150"><time>2026-05-03T11:11:45Z</time></trkpt>
</trkseg></trk>
<trk>
<name>nrcmg3</name>
<cmt>v</cmt>
<desc>Mont-Gauthier Chemin n°3 Rue Hautmont / Rue du Pécali / Chemin des Frênes</desc>
<link href="https://chemins.be/montgauthier/chemin/3"/><trkseg>
<trkpt lat="50.167608" lon="5.157150"><time>2026-05-03T11:11:45Z</time></trkpt>
<trkpt lat="50.167140" lon="5.157124"><time>2026-05-03T11:21:45Z</time></trkpt>
</trkseg>
</trk>
</gpx>